Time;durP1;ratioP1;P1;durP2;ratioP2;P2;SDS_P1;SDS_P2;PMS_P1;PMS_P2;Temp;Humidity;BMP_temperature;BMP_pressure;BME280_temperature;BME280_humidity;BME280_pressure;Samples;Min_cycle;Max_cycle;Signal;HPM_P1;HPM_P2
2022/09/26 00:00:34;;;;;;;11.00;5.60;;;;;;;9.81;98.62;100337.28;4966505;28;20055;-82
2022/09/26 00:03:01;;;;;;;14.02;5.72;;;;;;;9.88;98.64;100342.69;4972388;28;20385;-82
2022/09/26 00:05:28;;;;;;;7.97;5.20;;;;;;;9.85;98.73;100348.25;4972480;28;20039;-81
2022/09/26 00:07:54;;;;;;;12.90;5.78;;;;;;;9.88;99.24;100343.53;4971426;28;20059;-79
2022/09/26 00:10:22;;;;;;;9.23;5.70;;;;;;;9.93;98.92;100333.38;4968100;28;20457;-79
2022/09/26 00:12:49;;;;;;;8.50;5.47;;;;;;;9.96;98.92;100332.25;4968878;28;20048;-79
2022/09/26 00:15:15;;;;;;;7.25;5.03;;;;;;;9.99;98.78;100329.31;4968546;28;20083;-79
2022/09/26 00:17:42;;;;;;;9.18;5.38;;;;;;;9.98;98.68;100332.91;4971693;28;20137;-79
2022/09/26 00:20:09;;;;;;;9.73;5.68;;;;;;;10.00;98.35;100325.72;4970877;29;20071;-79
2022/09/26 00:22:36;;;;;;;8.93;5.53;;;;;;;9.99;98.44;100316.25;4970675;28;20079;-81
2022/09/26 00:25:03;;;;;;;9.25;5.43;;;;;;;9.93;98.70;100307.25;4967199;28;20111;-80
2022/09/26 00:27:31;;;;;;;12.27;5.72;;;;;;;10.02;98.82;100309.88;4962069;29;20075;-80
2022/09/26 00:29:57;;;;;;;11.68;5.68;;;;;;;10.06;98.69;100298.13;4960181;28;20051;-80
2022/09/26 00:32:24;;;;;;;8.70;5.47;;;;;;;10.07;98.47;100289.31;4960383;28;20149;-79
2022/09/26 00:34:51;;;;;;;8.80;5.38;;;;;;;10.10;98.44;100287.19;4960670;29;20051;-79
2022/09/26 00:37:17;;;;;;;8.57;5.85;;;;;;;10.18;98.44;100289.81;4962905;29;20117;-79
2022/09/26 00:39:44;;;;;;;9.48;5.53;;;;;;;10.24;97.87;100289.22;4961984;29;20522;-79
2022/09/26 00:42:13;;;;;;;8.63;6.18;;;;;;;10.27;97.55;100278.44;4962770;28;20051;-80
2022/09/26 00:44:46;;;;;;;11.38;5.90;;;;;;;10.34;97.80;100272.53;4962351;29;20134;-80
2022/09/26 00:47:24;;;;;;;9.00;5.90;;;;;;;10.37;97.69;100280.06;4962276;28;20071;-79
2022/09/26 00:49:55;;;;;;;11.38;5.97;;;;;;;10.41;97.76;100268.28;4961076;29;20053;-80
2022/09/26 00:52:27;;;;;;;10.00;6.15;;;;;;;10.41;97.48;100279.56;4963388;28;20078;-81
2022/09/26 00:54:56;;;;;;;10.80;5.93;;;;;;;10.36;97.67;100265.34;4965065;28;20043;-81
2022/09/26 00:57:33;;;;;;;9.18;6.03;;;;;;;10.33;98.31;100260.44;4963515;28;20070;-80
2022/09/26 01:00:05;;;;;;;10.30;6.18;;;;;;;10.21;98.53;100258.16;4943079;29;20090;-80
2022/09/26 01:02:32;;;;;;;11.20;6.78;;;;;;;10.21;99.06;100259.94;4960537;29;20055;-80
2022/09/26 01:04:59;;;;;;;10.00;6.43;;;;;;;10.22;99.22;100259.78;4964235;28;20110;-80
2022/09/26 01:07:28;;;;;;;12.07;6.90;;;;;;;10.13;99.98;100250.28;4963572;28;20431;-80
2022/09/26 01:09:56;;;;;;;11.70;5.95;;;;;;;10.15;100.00;100248.31;4963830;28;20058;-80
2022/09/26 01:12:23;;;;;;;16.05;7.10;;;;;;;10.24;100.00;100244.75;4963879;28;20052;-80
2022/09/26 01:14:53;;;;;;;12.27;7.20;;;;;;;10.28;99.96;100245.25;4963599;28;20075;-79
2022/09/26 01:17:22;;;;;;;10.30;7.05;;;;;;;10.23;100.00;100239.69;4964810;28;20115;-79
2022/09/26 01:20:02;;;;;;;12.23;7.38;;;;;;;10.41;99.92;100240.31;4962975;28;20225;-79
2022/09/26 01:23:02;;;;;;;12.05;6.78;;;;;;;10.49;99.02;100218.56;4962894;28;20138;-79
2022/09/26 01:25:43;;;;;;;17.40;7.78;;;;;;;10.63;98.69;100231.81;4963976;29;20221;-79
2022/09/26 01:28:29;;;;;;;13.40;7.47;;;;;;;10.75;98.13;100223.63;4961694;28;20085;-79
2022/09/26 01:31:05;;;;;;;12.63;7.63;;;;;;;10.91;97.75;100224.38;4966076;29;20079;-79
2022/09/26 01:33:45;;;;;;;17.35;8.07;;;;;;;10.88;97.51;100227.31;4941463;29;20162;-78
2022/09/26 01:36:23;;;;;;;11.07;7.78;;;;;;;10.91;97.66;100218.31;4950425;28;20082;-79
2022/09/26 01:39:04;;;;;;;12.25;8.07;;;;;;;10.90;97.68;100207.03;4980669;28;20093;-79
2022/09/26 01:41:44;;;;;;;12.30;8.15;;;;;;;10.96;97.35;100206.38;4963209;28;20043;-79
2022/09/26 01:44:26;;;;;;;11.77;8.48;;;;;;;10.97;97.46;100205.38;4961337;28;20043;-79
2022/09/26 01:46:58;;;;;;;14.93;8.40;;;;;;;10.98;97.09;100195.72;4961429;28;20071;-79
2022/09/26 01:49:31;;;;;;;11.68;8.32;;;;;;;11.02;97.38;100198.81;4959695;28;20055;-78
2022/09/26 01:52:03;;;;;;;13.02;8.95;;;;;;;11.01;96.91;100199.81;4963874;28;20102;-80
2022/09/26 01:54:35;;;;;;;12.88;8.52;;;;;;;10.89;97.48;100192.31;4964626;28;20130;-80
2022/09/26 01:57:07;;;;;;;12.38;8.63;;;;;;;10.95;97.19;100191.63;4963827;29;20071;-80
2022/09/26 01:59:39;;;;;;;13.68;8.77;;;;;;;10.91;97.53;100181.66;4964104;29;20051;-80
2022/09/26 02:02:12;;;;;;;9.57;8.30;;;;;;;10.89;97.72;100189.69;4963001;28;20110;-79
2022/09/26 02:04:43;;;;;;;12.18;8.65;;;;;;;10.84;97.74;100170.28;4963147;28;20107;-78
2022/09/26 02:07:13;;;;;;;13.60;8.52;;;;;;;10.83;98.18;100173.88;4963005;29;20051;-78
2022/09/26 02:09:44;;;;;;;15.95;8.60;;;;;;;10.83;98.21;100169.47;4967813;28;20058;-78
2022/09/26 02:12:18;;;;;;;15.10;8.40;;;;;;;10.86;98.73;100169.13;4968773;29;20083;-78
2022/09/26 02:14:51;;;;;;;12.57;9.05;;;;;;;10.83;98.42;100163.41;4972177;29;20067;-77
2022/09/26 02:17:21;;;;;;;;;;;;;;;10.88;98.61;100164.50;4973104;29;20055;-79
2022/09/26 02:19:55;;;;;;;13.88;8.55;;;;;;;10.80;98.54;100148.84;4972052;28;19966;-79
2022/09/26 02:22:22;;;;;;;11.25;8.50;;;;;;;10.84;98.49;100152.75;4971876;28;20139;-79
2022/09/26 02:24:49;;;;;;;15.05;8.82;;;;;;;10.80;98.83;100164.56;4973009;28;20066;-80
2022/09/26 02:27:16;;;;;;;10.55;8.48;;;;;;;10.68;99.10;100149.38;4966944;29;20082;-79
2022/09/26 02:29:43;;;;;;;15.43;9.43;;;;;;;10.64;99.49;100154.13;4964594;28;20534;-78
2022/09/26 02:32:14;;;;;;;14.27;8.82;;;;;;;10.68;99.74;100144.16;4965092;28;20085;-79
2022/09/26 02:34:45;;;;;;;13.55;8.95;;;;;;;10.60;99.64;100129.28;4964806;28;20047;-81
2022/09/26 02:37:13;;;;;;;14.98;9.02;;;;;;;10.60;100.00;100129.28;4964210;28;20085;-81
2022/09/26 02:39:41;;;;;;;12.45;9.40;;;;;;;10.62;100.00;100129.94;4966536;28;20062;-80
2022/09/26 02:42:20;;;;;;;14.43;9.70;;;;;;;10.60;99.92;100111.78;4967856;28;20071;-81
2022/09/26 02:45:20;;;;;;;15.63;9.25;;;;;;;10.63;100.00;100115.88;4967422;28;20054;-81
2022/09/26 02:48:08;;;;;;;14.60;9.35;;;;;;;10.59;100.00;100114.56;4966952;29;20102;-82
2022/09/26 02:50:53;;;;;;;17.38;9.43;;;;;;;10.53;100.00;100110.00;4965333;29;20758;-80
2022/09/26 02:53:37;;;;;;;12.57;9.25;;;;;;;10.54;100.00;100114.25;4965705;28;20588;-81
2022/09/26 02:56:13;;;;;;;12.55;8.93;;;;;;;10.55;100.00;100103.63;4965976;29;20074;-81
2022/09/26 02:58:51;;;;;;;13.73;8.65;;;;;;;10.49;100.00;100103.47;4966615;28;20055;-81
2022/09/26 03:01:21;;;;;;;14.63;8.38;;;;;;;10.46;100.00;100106.44;4966513;28;20051;-81
2022/09/26 03:03:54;;;;;;;11.05;8.98;;;;;;;10.43;100.00;100098.91;4963837;28;20051;-81
2022/09/26 03:06:26;;;;;;;;;;;;;;;10.36;100.00;100097.97;4964704;29;20102;-80
2022/09/26 03:08:56;;;;;;;17.08;9.32;;;;;;;10.26;100.00;100087.69;4963441;28;20382;-80
2022/09/26 03:11:25;;;;;;;12.40;9.75;;;;;;;10.22;100.00;100095.06;4963214;28;20134;-80
2022/09/26 03:13:54;;;;;;;12.30;9.20;;;;;;;10.20;100.00;100068.25;4962447;28;20484;-79
2022/09/26 03:16:23;;;;;;;11.23;8.75;;;;;;;10.19;100.00;100077.09;4963776;28;20543;-79
2022/09/26 03:18:54;;;;;;;12.80;8.55;;;;;;;10.17;100.00;100071.19;4964991;29;20103;-79
2022/09/26 03:21:21;;;;;;;12.68;8.18;;;;;;;10.20;100.00;100062.22;4966145;28;20082;-80
2022/09/26 03:23:49;;;;;;;14.20;8.20;;;;;;;10.19;100.00;100069.25;4965823;28;20082;-80
2022/09/26 03:26:18;;;;;;;13.10;8.48;;;;;;;10.13;100.00;100054.19;4966613;28;20110;-79
2022/09/26 03:28:45;;;;;;;13.60;7.78;;;;;;;10.17;100.00;100044.22;4967017;28;20063;-79
2022/09/26 03:31:12;;;;;;;12.32;7.35;;;;;;;10.18;100.00;100049.28;4968436;28;20107;-79
2022/09/26 03:33:39;;;;;;;17.38;7.40;;;;;;;10.15;100.00;100036.53;4967005;28;20075;-79
2022/09/26 03:36:08;;;;;;;9.10;7.78;;;;;;;10.16;100.00;100040.78;4967402;28;20061;-79
2022/09/26 03:38:34;;;;;;;11.52;7.78;;;;;;;10.19;100.00;100027.41;4969389;28;20084;-81
2022/09/26 03:41:03;;;;;;;10.50;7.97;;;;;;;10.25;100.00;100031.16;4971530;28;20047;-81
2022/09/26 03:43:30;;;;;;;13.23;7.90;;;;;;;10.22;100.00;100024.47;4968125;28;20062;-80
2022/09/26 03:45:57;;;;;;;11.52;8.30;;;;;;;10.28;100.00;100023.78;4967336;28;20175;-80
2022/09/26 03:48:23;;;;;;;10.82;8.77;;;;;;;10.26;100.00;100011.88;4966366;28;20180;-80
2022/09/26 03:50:50;;;;;;;13.57;9.45;;;;;;;10.25;100.00;100005.81;4967766;28;20078;-81
2022/09/26 03:53:17;;;;;;;12.30;9.10;;;;;;;10.28;100.00;100008.09;4972717;28;20058;-80
2022/09/26 03:55:45;;;;;;;11.40;8.85;;;;;;;10.25;100.00;100008.44;4971904;28;20074;-80
2022/09/26 03:58:13;;;;;;;16.25;9.93;;;;;;;10.25;100.00;100000.59;4970544;28;20047;-80
2022/09/26 04:00:39;;;;;;;16.90;10.60;;;;;;;10.22;100.00;99993.09;4972186;29;20161;-80
2022/09/26 04:03:06;;;;;;;13.27;10.38;;;;;;;10.20;100.00;99989.81;4972149;29;20086;-80
2022/09/26 04:05:33;;;;;;;14.07;10.15;;;;;;;10.15;100.00;99989.47;4969279;29;20083;-80
2022/09/26 04:08:01;;;;;;;16.30;10.57;;;;;;;10.05;100.00;99983.63;4964210;29;20043;-79
2022/09/26 04:10:28;;;;;;;16.10;11.20;;;;;;;10.01;100.00;99977.09;4966823;29;20051;-79
2022/09/26 04:12:55;;;;;;;15.15;11.20;;;;;;;9.98;100.00;99986.09;4968353;28;20051;-79
2022/09/26 04:15:23;;;;;;;15.60;11.02;;;;;;;10.01;100.00;99977.09;4968326;28;20104;-79
2022/09/26 04:17:50;;;;;;;18.95;11.32;;;;;;;9.99;100.00;99971.22;4966022;29;20153;-77
2022/09/26 04:20:17;;;;;;;14.32;11.10;;;;;;;9.96;100.00;99966.34;4969766;29;20055;-79
2022/09/26 04:22:43;;;;;;;16.08;12.38;;;;;;;9.94;100.00;99963.06;4970166;28;20090;-79
2022/09/26 04:25:10;;;;;;;17.05;11.55;;;;;;;9.93;100.00;99958.81;4972084;28;20058;-79
2022/09/26 04:27:37;;;;;;;17.27;12.27;;;;;;;9.92;100.00;99955.41;4965755;28;20058;-79
2022/09/26 04:30:04;;;;;;;17.55;12.35;;;;;;;9.89;100.00;99947.09;4969374;29;20039;-80
2022/09/26 04:35:00;;;;;;;16.73;12.48;;;;;;;9.81;100.00;99932.25;4953078;29;20095;-78
2022/09/26 04:37:27;;;;;;;18.48;13.25;;;;;;;9.87;100.00;99936.00;4963696;28;20084;-81
2022/09/26 04:39:58;;;;;;;18.33;12.80;;;;;;;9.87;100.00;99936.81;4964143;29;20109;-79
2022/09/26 04:42:37;;;;;;;18.52;13.10;;;;;;;9.72;100.00;99914.16;4961080;29;20055;-79
2022/09/26 04:45:08;;;;;;;15.65;12.57;;;;;;;9.85;100.00;99928.34;4940296;29;20071;-79
2022/09/26 04:47:43;;;;;;;20.90;13.30;;;;;;;9.84;100.00;99918.06;4927790;29;20651;-79
2022/09/26 04:50:23;;;;;;;;;;;;;;;;;;;;;
2022/09/26 04:52:52;;;;;;;20.00;13.27;;;;;;;9.78;100.00;99913.50;4903383;29;20112;-81
2022/09/26 04:55:21;;;;;;;18.77;13.20;;;;;;;9.68;100.00;99910.25;4902427;29;20053;-80
2022/09/26 04:57:53;;;;;;;20.10;14.07;;;;;;;9.74;100.00;99915.63;4904770;29;20063;-80
2022/09/26 05:00:24;;;;;;;18.60;14.27;;;;;;;9.53;100.00;99887.44;4903000;29;20079;-80
2022/09/26 05:02:53;;;;;;;20.63;13.95;;;;;;;9.57;100.00;99888.72;4904677;29;20092;-80
2022/09/26 05:05:31;;;;;;;18.02;13.77;;;;;;;9.52;100.00;99874.53;4904491;29;20076;-80
2022/09/26 05:08:05;;;;;;;25.10;14.07;;;;;;;9.53;100.00;99876.97;4906729;29;20108;-82
2022/09/26 05:10:50;;;;;;;;;;;;;;;;;;;;;
2022/09/26 05:13:25;;;;;;;23.00;14.15;;;;;;;9.48;100.00;99874.06;4904302;29;20121;-81
2022/09/26 05:18:59;;;;;;;17.00;12.80;;;;;;;9.67;100.00;99888.53;4911228;29;20060;-81
2022/09/26 05:27:40;;;;;;;17.63;12.07;;;;;;;9.54;100.00;99868.16;4867893;29;20060;-80
2022/09/26 05:30:23;;;;;;;;;;;;;;;;;;;;;
2022/09/26 05:32:57;;;;;;;18.23;12.90;;;;;;;9.75;100.00;99874.63;4859059;29;20140;-81
2022/09/26 05:35:34;;;;;;;16.30;12.25;;;;;;;9.79;100.00;99881.16;4872995;29;20052;-82
2022/09/26 05:38:05;;;;;;;15.32;11.63;;;;;;;9.64;100.00;99847.06;4906088;29;20063;-81
2022/09/26 05:40:55;;;;;;;17.63;11.48;;;;;;;9.69;100.00;99836.13;4906912;29;20112;-81
2022/09/26 05:43:33;;;;;;;16.23;10.85;;;;;;;9.85;100.00;99868.22;4906355;29;20057;-82
2022/09/26 05:46:05;;;;;;;15.70;11.45;;;;;;;9.82;100.00;99844.25;4905075;29;20045;-81
2022/09/26 05:48:33;;;;;;;18.15;10.02;;;;;;;9.92;100.00;99850.88;4906370;29;20131;-82
2022/09/26 05:51:04;;;;;;;15.30;10.73;;;;;;;9.98;100.00;99847.56;4908538;29;20104;-83
2022/09/26 05:53:36;;;;;;;17.75;10.00;;;;;;;10.00;100.00;99852.63;4909587;29;20135;-81
2022/09/26 05:56:05;;;;;;;14.93;9.48;;;;;;;10.04;100.00;99842.66;4920119;29;20080;-81
2022/09/26 05:58:34;;;;;;;13.40;9.45;;;;;;;10.03;100.00;99836.59;4923882;29;20057;-80
2022/09/26 06:01:05;;;;;;;17.08;10.18;;;;;;;10.16;100.00;99839.47;4944687;29;20071;-81
2022/09/26 06:03:33;;;;;;;20.40;10.40;;;;;;;10.18;100.00;99829.66;4933960;29;20052;-79
2022/09/26 06:06:04;;;;;;;16.00;9.95;;;;;;;10.29;100.00;99829.31;4941342;29;20048;-80
2022/09/26 06:08:31;;;;;;;19.88;9.30;;;;;;;10.39;100.00;99821.22;4940523;29;20135;-80
2022/09/26 06:10:59;;;;;;;19.77;9.52;;;;;;;10.50;100.00;99825.22;4941318;29;20134;-80
2022/09/26 06:13:27;;;;;;;14.27;9.18;;;;;;;10.59;99.44;99818.94;4941860;29;20087;-80
2022/09/26 06:15:56;;;;;;;16.08;9.40;;;;;;;10.66;98.78;99809.41;4918332;29;20522;-80
2022/09/26 06:18:23;;;;;;;13.57;8.43;;;;;;;10.81;97.67;99802.41;4918704;29;20138;-81
2022/09/26 06:20:49;;;;;;;10.65;7.90;;;;;;;10.97;96.74;99802.25;4937344;29;20058;-80
2022/09/26 06:23:16;;;;;;;11.32;7.47;;;;;;;11.09;95.92;99797.38;4925599;29;20516;-78
2022/09/26 06:25:43;;;;;;;13.50;6.90;;;;;;;11.25;94.71;99791.97;4906976;29;20045;-79
2022/09/26 06:28:10;;;;;;;12.15;6.70;;;;;;;11.46;94.06;99801.72;4908626;29;20128;-83
2022/09/26 06:30:38;;;;;;;9.50;6.38;;;;;;;11.70;92.75;99808.47;4918278;29;20142;-81
2022/09/26 06:33:04;;;;;;;11.73;6.50;;;;;;;11.88;91.52;99792.38;4924992;29;20063;-80
2022/09/26 06:35:32;;;;;;;9.07;5.88;;;;;;;11.76;90.30;99799.06;4931749;29;20151;-81
2022/09/26 06:37:59;;;;;;;7.93;5.47;;;;;;;11.72;89.71;99798.63;4926841;29;20154;-82
2022/09/26 06:40:26;;;;;;;10.85;5.38;;;;;;;11.76;89.46;99791.22;4935402;29;20062;-80
2022/09/26 06:42:54;;;;;;;13.73;5.53;;;;;;;11.64;90.20;99786.44;4942586;29;20135;-81
2022/09/26 06:45:21;;;;;;;9.40;5.20;;;;;;;11.63;89.77;99784.81;4944188;29;20169;-83
2022/09/26 06:47:52;;;;;;;8.63;5.10;;;;;;;11.76;88.54;99768.44;4943294;29;20528;-80
2022/09/26 06:50:18;;;;;;;9.35;4.75;;;;;;;11.70;88.67;99773.59;4942723;29;20052;-82
2022/09/26 06:52:45;;;;;;;8.18;4.60;;;;;;;11.75;88.85;99772.06;4922926;29;20120;-78
2022/09/26 06:55:12;;;;;;;7.28;4.63;;;;;;;11.79;88.07;99767.28;4924104;29;20076;-82
2022/09/26 06:57:41;;;;;;;8.80;5.15;;;;;;;11.80;87.46;99755.81;4925407;29;20268;-80
2022/09/26 07:00:09;;;;;;;11.55;4.75;;;;;;;11.82;87.13;99756.41;4927247;29;20095;-80
2022/09/26 07:02:36;;;;;;;8.20;5.00;;;;;;;11.91;86.70;99755.28;4927548;29;20084;-82
2022/09/26 07:05:05;;;;;;;6.15;4.30;;;;;;;11.96;86.38;99747.69;4929128;29;20059;-80
2022/09/26 07:07:34;;;;;;;6.28;4.65;;;;;;;11.94;86.57;99752.31;4925418;29;20076;-81
2022/09/26 07:10:01;;;;;;;5.70;4.25;;;;;;;11.89;86.63;99741.56;4924920;29;20044;-81
2022/09/26 07:12:27;;;;;;;9.85;4.60;;;;;;;11.80;86.06;99738.28;4925897;29;20071;-83
2022/09/26 07:14:54;;;;;;;9.55;4.75;;;;;;;11.82;86.50;99738.06;4927318;29;20059;-82
2022/09/26 07:17:21;;;;;;;9.50;4.90;;;;;;;11.82;87.31;99743.28;4928022;29;20067;-85
2022/09/26 07:19:52;;;;;;;6.95;4.80;;;;;;;11.84;86.87;99739.50;4926217;29;20048;-83
2022/09/26 07:22:36;;;;;;;8.65;4.68;;;;;;;11.72;87.99;99734.91;4924019;29;20067;-83
2022/09/26 07:25:30;;;;;;;9.30;4.85;;;;;;;11.71;88.59;99723.63;4919067;29;20080;-85
2022/09/26 07:27:57;;;;;;;8.60;4.53;;;;;;;11.67;89.86;99726.78;4913518;29;20048;-84
2022/09/26 07:30:43;;;;;;;10.55;5.10;;;;;;;11.60;91.34;99717.03;4916075;29;20064;-84
2022/09/26 07:33:13;;;;;;;12.50;5.03;;;;;;;11.61;91.79;99729.16;4913861;29;20067;-83
2022/09/26 07:35:45;;;;;;;7.97;4.82;;;;;;;11.53;92.17;99707.47;4922962;29;20099;-83
2022/09/26 07:38:13;;;;;;;10.35;5.00;;;;;;;11.62;93.49;99709.00;4920910;29;20059;-83
2022/09/26 07:40:48;;;;;;;8.95;5.53;;;;;;;11.60;93.51;99722.28;4925562;29;20125;-83
2022/09/26 07:43:29;;;;;;;9.50;4.57;;;;;;;11.50;94.58;99710.47;4929913;29;20419;-82
2022/09/26 07:52:03;;;;;;;6.47;4.60;;;;;;;11.49;94.47;99690.50;4894381;29;20044;-83
2022/09/26 07:54:38;;;;;;;6.93;5.03;;;;;;;11.52;94.59;99696.19;4940188;29;20119;-83
2022/09/26 07:57:05;;;;;;;6.82;4.38;;;;;;;11.42;95.87;99690.44;4924014;29;20064;-83
2022/09/26 07:59:35;;;;;;;7.35;4.57;;;;;;;11.61;95.92;99708.19;4924338;29;20064;-82
2022/09/26 08:02:04;;;;;;;9.68;4.93;;;;;;;11.47;96.32;99693.31;4910541;29;20057;-83
2022/09/26 08:04:33;;;;;;;7.10;4.82;;;;;;;11.54;97.58;99696.81;4914461;29;20140;-83
2022/09/26 08:07:16;;;;;;;10.80;4.70;;;;;;;11.44;98.21;99693.69;4914025;29;20052;-81
2022/09/26 08:09:57;;;;;;;8.10;4.75;;;;;;;11.45;97.62;99682.19;4935482;29;20128;-83
2022/09/26 08:17:33;;;;;;;8.32;3.55;;;;;;;11.63;95.76;99680.00;4930454;29;20048;-83
2022/09/26 08:20:00;;;;;;;10.27;4.15;;;;;;;11.57;95.82;99679.91;4923205;29;20048;-84
2022/09/26 08:22:27;;;;;;;7.72;4.05;;;;;;;11.50;96.13;99668.56;4924038;29;20059;-85
2022/09/26 08:25:05;;;;;;;8.32;3.42;;;;;;;11.56;95.61;99684.34;4928395;29;20227;-80
2022/09/26 08:27:52;;;;;;;6.85;3.42;;;;;;;11.36;96.09;99670.22;4933953;29;20553;-79
2022/09/26 08:30:26;;;;;;;8.45;3.70;;;;;;;11.36;96.01;99675.44;4921648;29;20537;-78
2022/09/26 08:32:59;;;;;;;8.80;3.80;;;;;;;11.34;95.70;99661.75;4932931;29;20056;-82
2022/09/26 08:35:39;;;;;;;11.40;4.07;;;;;;;11.48;96.86;99673.97;4926048;29;20060;-81
2022/09/26 08:38:24;;;;;;;16.40;4.70;;;;;;;11.48;97.21;99663.50;4929826;29;20119;-83
2022/09/26 08:48:25;;;;;;;9.73;3.80;;;;;;;11.52;97.27;99675.22;4886104;29;20059;-82
2022/09/26 09:00:57;;;;;;;6.05;3.63;;;;;;;11.44;97.95;99670.09;4923841;29;20101;-82
2022/09/26 09:03:53;;;;;;;8.48;3.78;;;;;;;11.29;97.64;99640.53;4922629;29;20492;-81
2022/09/26 09:09:49;;;;;;;4.55;3.17;;;;;;;11.28;97.93;99637.09;4930395;29;20461;-78
2022/09/26 09:22:46;;;;;;;7.07;3.90;;;;;;;11.35;96.97;99618.81;4884075;29;20083;-83
2022/09/26 09:29:01;;;;;;;5.03;3.80;;;;;;;11.54;96.81;99633.94;4920855;29;20143;-84
2022/09/26 09:45:07;;;;;;;6.55;3.97;;;;;;;11.78;97.81;99616.25;4868772;29;20550;-83
2022/09/26 09:47:43;;;;;;;4.43;3.50;;;;;;;11.70;98.05;99598.00;4911732;29;20485;-82
2022/09/26 09:51:09;;;;;;;6.45;4.38;;;;;;;11.80;98.08;99599.34;4935374;29;20481;-82
2022/09/26 09:58:02;;;;;;;6.70;3.80;;;;;;;11.84;97.75;99578.78;4860520;29;20065;-80
2022/09/26 10:01:03;;;;;;;6.35;4.13;;;;;;;12.18;96.03;99599.84;4923353;29;20062;-81
2022/09/26 10:04:10;;;;;;;10.00;3.70;;;;;;;12.13;96.22;99573.38;4900260;29;20124;-83
2022/09/26 10:06:37;;;;;;;7.10;4.07;;;;;;;12.16;96.89;99596.59;4908521;29;20421;-79
2022/09/26 10:09:16;;;;;;;9.50;4.65;;;;;;;12.24;97.14;99593.84;4917187;29;20105;-78
2022/09/26 10:11:43;;;;;;;9.77;4.90;;;;;;;12.13;98.20;99583.88;4912349;29;20135;-79
2022/09/26 10:14:13;;;;;;;6.05;3.72;;;;;;;12.20;98.04;99582.09;4918098;29;20524;-78
2022/09/26 10:17:17;;;;;;;5.97;4.35;;;;;;;12.13;99.07;99575.19;4911690;29;20159;-78
2022/09/26 10:19:44;;;;;;;7.40;4.07;;;;;;;12.12;97.69;99569.13;4908132;29;20044;-79
2022/09/26 10:22:18;;;;;;;5.43;3.88;;;;;;;12.28;98.21;99575.91;4912874;29;20140;-78
2022/09/26 10:24:47;;;;;;;5.18;4.05;;;;;;;12.38;97.99;99570.28;4910585;29;20055;-78
2022/09/26 10:27:23;;;;;;;5.93;3.97;;;;;;;12.33;97.06;99568.22;4912384;29;20106;-77
2022/09/26 10:29:57;;;;;;;5.97;3.60;;;;;;;12.44;97.94;99564.25;4912880;29;20131;-78
2022/09/26 10:32:26;;;;;;;5.45;3.72;;;;;;;12.36;96.50;99553.91;4911933;29;20290;-77
2022/09/26 10:35:17;;;;;;;4.78;3.55;;;;;;;12.24;97.34;99551.06;4913420;29;20131;-79
2022/09/26 10:37:48;;;;;;;6.57;4.22;;;;;;;12.23;98.32;99529.25;4956476;23;20142;-81
2022/09/26 10:40:53;;;;;;;8.85;3.95;;;;;;;12.10;97.35;99508.19;4963968;28;20474;-80
2022/09/26 10:43:27;;;;;;;6.35;3.85;;;;;;;12.27;96.54;99522.63;4883505;29;20065;-80
2022/09/26 10:46:11;;;;;;;6.68;3.95;;;;;;;12.50;96.42;99518.88;4884884;29;20124;-80
2022/09/26 10:48:52;;;;;;;6.07;3.75;;;;;;;12.49;96.13;99512.03;4919483;29;20062;-80
2022/09/26 10:51:24;;;;;;;5.82;3.75;;;;;;;12.54;95.85;99476.31;4930378;29;20051;-81
2022/09/26 10:54:03;;;;;;;5.25;3.60;;;;;;;12.74;95.15;99499.22;4944311;29;20086;-81
2022/09/26 10:56:42;;;;;;;5.53;3.60;;;;;;;12.74;93.66;99489.53;4943171;29;20142;-81
2022/09/26 10:59:13;;;;;;;5.05;3.50;;;;;;;12.68;93.99;99484.25;4944780;29;20047;-81
2022/09/26 11:01:44;;;;;;;6.40;4.00;;;;;;;12.66;93.91;99468.69;4940052;29;20556;-81
2022/09/26 11:05:55;;;;;;;7.68;3.80;;;;;;;12.87;93.21;99496.59;4943617;29;20063;-82
2022/09/26 11:07:09;;;;;;;6.07;3.80;;;;;;;12.83;93.42;99483.06;4942748;29;20137;-82
2022/09/26 11:09:38;;;;;;;5.35;3.65;;;;;;;12.70;92.18;99469.91;4943919;29;20207;-81
2022/09/26 11:12:24;;;;;;;4.75;3.50;;;;;;;12.95;92.61;99481.47;4945196;29;20349;-82
2022/09/26 11:15:01;;;;;;;4.43;3.20;;;;;;;13.01;91.74;99469.38;4951203;29;20074;-80
2022/09/26 11:17:46;;;;;;;6.75;3.15;;;;;;;13.18;90.06;99475.88;4962089;28;20059;-80
2022/09/26 11:20:45;;;;;;;7.03;3.60;;;;;;;13.23;87.47;99456.91;4925758;29;20066;-82
2022/09/26 11:26:47;;;;;;;5.03;3.35;;;;;;;13.30;86.83;99434.03;4930453;29;20052;-82
2022/09/26 11:29:38;;;;;;;5.60;3.10;;;;;;;13.42;87.72;99419.28;4945679;29;20110;-81
2022/09/26 11:32:49;;;;;;;6.35;3.53;;;;;;;13.93;86.59;99445.69;4944114;29;20055;-81
2022/09/26 11:35:33;;;;;;;3.50;2.90;;;;;;;14.03;84.47;99436.56;4943662;29;20062;-80
2022/09/26 11:38:45;;;;;;;5.18;3.17;;;;;;;13.75;83.69;99405.28;4940276;29;20579;-79
2022/09/26 11:41:47;;;;;;;5.18;3.05;;;;;;;13.59;83.76;99391.59;4943797;29;20071;-81
2022/09/26 11:44:40;;;;;;;5.35;3.00;;;;;;;13.70;84.63;99400.66;4948955;29;20059;-81
2022/09/26 11:47:52;;;;;;;10.07;3.13;;;;;;;13.52;83.64;99377.66;4949617;28;20108;-81
2022/09/26 11:50:55;;;;;;;4.15;3.10;;;;;;;13.74;83.58;99411.53;4941403;29;20517;-81
2022/09/26 12:01:19;;;;;;;4.53;3.20;;;;;;;13.58;83.64;99381.28;4899399;29;20063;-82
2022/09/26 12:04:14;;;;;;;6.78;3.30;;;;;;;13.32;83.30;99365.53;4891936;29;20056;-81
2022/09/26 12:06:52;;;;;;;7.05;2.90;;;;;;;13.39;83.89;99377.66;4926616;29;20048;-81
2022/09/26 12:09:54;;;;;;;5.28;2.95;;;;;;;13.22;82.80;99355.47;4943152;29;20051;-80
2022/09/26 12:12:32;;;;;;;6.70;3.45;;;;;;;13.18;83.64;99359.50;4942573;29;20059;-81
2022/09/26 12:15:20;;;;;;;13.20;3.35;;;;;;;13.15;82.72;99333.63;4944909;29;20082;-81
2022/09/26 12:18:06;;;;;;;8.82;3.92;;;;;;;13.22;83.48;99351.03;4943584;29;20062;-80
2022/09/26 12:20:41;;;;;;;6.45;3.10;;;;;;;13.33;83.94;99357.44;4949980;29;20059;-80
2022/09/26 12:23:30;;;;;;;4.82;2.72;;;;;;;13.10;83.59;99336.06;4954417;29;20103;-80
2022/09/26 12:26:24;;;;;;;5.00;2.95;;;;;;;13.08;83.06;99341.50;4950551;29;20057;-81
2022/09/26 12:39:49;;;;;;;5.30;2.95;;;;;;;13.12;81.89;99303.31;4756414;30;20201;-81
2022/09/26 12:43:15;;;;;;;;;;;;;;;;;;;;;
2022/09/26 12:46:04;;;;;;;4.40;2.78;;;;;;;13.03;85.36;99335.25;4798742;29;20064;-81
2022/09/26 12:48:52;;;;;;;6.32;3.10;;;;;;;12.97;85.84;99328.97;4905231;29;20059;-83
2022/09/26 12:51:38;;;;;;;6.85;3.45;;;;;;;12.66;87.73;99305.97;4911563;29;20052;-82
2022/09/26 12:54:25;;;;;;;4.50;3.15;;;;;;;12.51;89.70;99300.91;4908528;29;20067;-82
2022/09/26 12:56:57;;;;;;;6.35;3.42;;;;;;;12.64;90.88;99342.13;4905957;29;20442;-82
2022/09/26 13:00:01;;;;;;;4.68;3.50;;;;;;;12.42;91.79;99312.59;4904847;29;20044;-83
2022/09/26 13:02:57;;;;;;;4.57;3.17;;;;;;;12.71;92.81;99352.63;4870332;29;20060;-82
2022/09/26 13:05:46;;;;;;;7.57;3.95;;;;;;;12.51;92.51;99302.72;4902043;29;20081;-82
2022/09/26 13:08:25;;;;;;;6.72;3.53;;;;;;;12.80;92.74;99333.81;4902551;29;20494;-82
2022/09/26 13:11:16;;;;;;;6.53;3.10;;;;;;;12.69;92.42;99336.25;4902780;29;20052;-82
2022/09/26 13:14:11;;;;;;;6.57;3.45;;;;;;;12.82;93.48;99334.44;4901999;29;20108;-84
2022/09/26 13:16:55;;;;;;;6.85;4.22;;;;;;;12.71;94.30;99332.44;4883614;29;20407;-82
2022/09/26 13:19:35;;;;;;;5.57;3.50;;;;;;;12.47;94.22;99288.41;4898254;29;20104;-82
2022/09/26 13:22:15;;;;;;;11.98;7.13;;;;;;;12.58;94.65;99303.53;4903480;29;20056;-83
2022/09/26 13:24:49;;;;;;;7.93;3.70;;;;;;;12.64;94.45;99321.13;4902912;29;20060;-82
2022/09/26 13:27:22;;;;;;;8.55;4.13;;;;;;;12.54;95.32;99281.34;4904137;29;20080;-82
2022/09/26 13:29:58;;;;;;;13.90;4.13;;;;;;;12.67;96.26;99314.66;4902576;29;20056;-83
2022/09/26 13:32:30;;;;;;;6.05;3.47;;;;;;;12.50;96.76;99293.25;4902888;29;20573;-83
2022/09/26 13:35:03;;;;;;;7.40;3.60;;;;;;;12.58;96.67;99304.34;4902860;29;20053;-81
2022/09/26 13:37:46;;;;;;;5.88;3.80;;;;;;;12.62;97.56;99304.75;4902528;29;20053;-82
2022/09/26 13:40:26;;;;;;;10.10;3.90;;;;;;;12.65;97.99;99306.97;4904118;29;20112;-82
2022/09/26 13:43:06;;;;;;;8.88;4.00;;;;;;;12.55;98.81;99301.31;4902588;29;20045;-83